Date,TemperatureHighF,TemperatureAvgF,TemperatureLowF,DewpointHighF,DewpointAvgF,DewpointLowF,HumidityHigh,HumidityAvg,HumidityLow,PressureMaxIn,PressureMinIn,WindSpeedMaxMPH,WindSpeedAvgMPH,GustSpeedMaxMPH,PrecipitationSumIn
2013-2-1,30,10,-8,26,7,-8,100,89,68,30.58,30.16,11,0,20,0.00
2013-2-2,39,25,18,34,22,17,97,88,76,30.35,30.14,16,3,42,0.03
2013-2-3,51,31,14,32,23,14,100,76,44,30.36,29.94,17,2,27,0.00
2013-2-4,34,22,17,29,19,16,98,90,78,30.25,29.97,10,1,17,0.00
2013-2-5,45,33,22,32,27,20,92,79,58,30.25,29.98,14,3,25,0.00
2013-2-6,47,37,23,38,31,20,90,79,65,30.23,29.96,15,1,20,0.00
2013-2-7,38,31,26,34,27,24,91,87,83,30.39,30.08,10,2,22,0.00
2013-2-8,36,27,22,27,24,20,93,87,69,30.44,30.26,7,1,16,0.00
2013-2-9,52,38,26,37,31,23,90,77,53,30.26,29.90,9,1,21,0.00
2013-2-10,44,34,27,38,30,24,90,83,70,29.94,29.52,25,6,44,0.18
2013-2-11,27,26,22,25,23,20,92,88,82,30.28,29.95,25,5,38,0.00
2013-2-12,44,29,16,27,22,16,98,79,47,30.30,30.05,15,2,16,0.00
2013-2-13,51,36,22,33,28,20,93,75,47,30.10,29.83,9,2,17,0.00
2013-2-14,40,32,16,33,26,11,95,79,54,30.45,29.96,23,6,30,0.00
2013-2-15,28,18,11,23,16,11,100,92,67,30.50,30.43,10,1,13,0.00
2013-2-16,35,22,7,29,19,7,100,89,71,30.48,30.18,8,1,16,0.00
2013-2-17,50,35,23,35,28,21,93,75,50,30.19,29.77,12,2,22,0.00
2013-2-18,43,28,10,35,22,6,89,79,66,30.29,29.80,23,10,40,0.00
2013-2-19,17,9,2,8,4,1,100,82,55,30.56,30.30,20,7,32,0.00
2013-2-20,24,11,-1,11,3,-1,100,75,42,30.59,30.37,10,2,16,0.00
2013-2-21,24,20,17,19,15,11,96,81,57,30.42,30.15,16,7,28,0.00
2013-2-22,24,19,12,20,17,12,100,95,81,30.22,30.14,12,2,21,0.01
2013-2-23,33,14,-3,23,11,-3,100,88,58,30.22,30.03,8,0,8,0.01
2013-2-24,30,19,6,26,17,6,100,93,76,30.27,30.14,1,0,6,0.00
2013-2-25,36,27,19,28,23,17,96,87,67,30.30,30.15,8,1,15,0.00
2013-2-26,33,26,20,29,23,18,93,90,86,30.20,30.04,9,2,17,0.00
2013-2-27,35,27,20,26,23,18,95,85,65,30.28,30.13,21,7,33,0.00
2013-2-28,28,25,23,24,22,21,93,90,83,30.38,30.28,14,3,23,0.00